createdAt,value
2023-04-14T00:00:41.097Z,9.96
2023-04-14T00:02:07.664Z,9.99
2023-04-14T00:03:32.580Z,9.97
2023-04-14T00:04:56.983Z,9.97
2023-04-14T00:06:23.194Z,10.00
2023-04-14T00:07:45.133Z,9.98
2023-04-14T00:14:18.245Z,9.95
2023-04-14T00:15:41.940Z,9.97
2023-04-14T00:17:03.423Z,9.97
2023-04-14T00:18:25.743Z,9.98
2023-04-14T00:19:49.907Z,9.92
2023-04-14T00:21:11.009Z,9.96
2023-04-14T00:22:33.432Z,9.92
2023-04-14T00:23:56.901Z,9.97
2023-04-14T00:25:19.405Z,9.93
2023-04-14T00:26:41.896Z,9.95
2023-04-14T00:28:04.267Z,10.03
2023-04-14T00:29:27.930Z,9.97
2023-04-14T00:30:50.537Z,10.02
2023-04-14T00:32:13.487Z,9.97
2023-04-14T00:33:40.376Z,10.04
2023-04-14T00:35:05.649Z,9.98
2023-04-14T00:36:31.476Z,9.96
2023-04-14T00:37:58.653Z,10.02
2023-04-14T00:39:27.346Z,10.00
2023-04-14T00:40:54.086Z,9.99
2023-04-14T00:42:28.327Z,10.03
2023-04-14T00:43:54.700Z,9.97
2023-04-14T00:45:21.508Z,10.05
2023-04-14T00:46:47.835Z,10.05
2023-04-14T00:48:13.245Z,10.01
2023-04-14T00:49:36.000Z,10.05
2023-04-14T00:51:03.993Z,9.99
2023-04-14T00:52:27.507Z,10.07
2023-04-14T00:53:51.702Z,9.98
2023-04-14T00:55:16.704Z,10.01
2023-04-14T00:56:43.235Z,10.07
2023-04-14T00:58:07.684Z,10.07
2023-04-14T00:59:30.012Z,10.04
2023-04-14T01:00:55.785Z,10.04
2023-04-14T01:02:17.456Z,10.03
2023-04-14T01:03:40.297Z,10.06
2023-04-14T01:05:02.803Z,10.03
2023-04-14T01:06:27.314Z,10.08
2023-04-14T01:07:51.912Z,10.08
2023-04-14T01:09:13.996Z,10.09
2023-04-14T01:10:39.837Z,10.05
2023-04-14T01:12:26.117Z,10.04
2023-04-14T01:13:59.618Z,10.05
2023-04-14T01:15:31.678Z,10.02
2023-04-14T01:17:02.316Z,10.04
2023-04-14T01:18:42.401Z,9.96
2023-04-14T01:20:19.867Z,9.93
2023-04-14T01:21:47.612Z,10.00
2023-04-14T01:23:14.506Z,10.01
2023-04-14T01:25:03.524Z,9.97
2023-04-14T01:26:31.294Z,9.97
2023-04-14T01:28:10.116Z,10.00
2023-04-14T01:30:03.227Z,9.97
2023-04-14T01:31:32.132Z,9.98
2023-04-14T01:32:58.294Z,9.96
2023-04-14T01:34:29.093Z,9.94
2023-04-14T01:35:58.767Z,9.99
2023-04-14T01:37:31.737Z,9.95
2023-04-14T01:38:56.131Z,9.94
2023-04-14T01:40:21.025Z,9.93
2023-04-14T01:41:49.975Z,9.98
2023-04-14T01:43:17.738Z,9.99
2023-04-14T01:44:42.043Z,10.01
2023-04-14T01:46:07.557Z,9.96
2023-04-14T01:47:31.576Z,10.02
2023-04-14T01:48:53.307Z,9.98
2023-04-14T01:50:17.794Z,10.01
2023-04-14T01:51:41.921Z,9.96
2023-04-14T01:53:06.629Z,9.97
2023-04-14T01:54:30.981Z,10.04
2023-04-14T01:55:53.654Z,10.04
2023-04-14T01:57:23.026Z,9.97
2023-04-14T01:58:49.952Z,9.96
2023-04-14T02:00:14.608Z,10.04
2023-04-14T02:01:41.851Z,10.03
2023-04-14T02:03:07.857Z,10.02
2023-04-14T02:04:36.419Z,10.04
2023-04-14T02:06:00.103Z,9.97
2023-04-14T02:07:23.046Z,9.96
2023-04-14T02:08:46.128Z,10.05
2023-04-14T02:10:12.236Z,10.02
2023-04-14T02:11:44.374Z,9.97
2023-04-14T02:13:10.025Z,10.03
2023-04-14T02:14:36.460Z,9.94
2023-04-14T02:16:00.946Z,10.02
2023-04-14T02:17:33.561Z,9.94
2023-04-14T02:19:01.041Z,10.02
2023-04-14T02:20:22.817Z,9.99
2023-04-14T02:21:46.443Z,9.93
2023-04-14T02:23:10.809Z,9.93
2023-04-14T02:24:39.408Z,10.00
2023-04-14T02:26:07.140Z,9.97
2023-04-14T02:27:35.273Z,9.94
2023-04-14T02:29:08.749Z,9.95
2023-04-14T02:30:40.357Z,9.91
2023-04-14T02:32:06.014Z,9.98
2023-04-14T02:33:32.995Z,9.89
2023-04-14T02:35:13.764Z,9.88
2023-04-14T02:36:40.709Z,9.93
2023-04-14T02:38:38.006Z,9.87
2023-04-14T02:40:15.153Z,9.95
2023-04-14T02:41:55.007Z,9.95
2023-04-14T02:43:20.952Z,9.87
2023-04-14T02:44:48.157Z,9.96
2023-04-14T02:46:13.171Z,9.96
2023-04-14T02:47:39.031Z,9.90
2023-04-14T02:49:06.322Z,9.96
2023-04-14T02:50:33.628Z,9.89
2023-04-14T02:52:06.747Z,9.96
2023-04-14T02:53:28.865Z,9.88
2023-04-14T02:55:05.422Z,9.88
2023-04-14T02:56:28.975Z,9.92
2023-04-14T02:57:52.467Z,9.93
2023-04-14T02:59:22.287Z,9.96
2023-04-14T03:00:52.461Z,9.96
2023-04-14T03:02:18.261Z,9.93
2023-04-14T03:03:45.884Z,9.88
2023-04-14T03:05:19.766Z,9.92
2023-04-14T03:07:05.192Z,9.92
2023-04-14T03:08:28.850Z,9.92
2023-04-14T03:09:50.964Z,9.87
2023-04-14T03:11:18.144Z,9.95
2023-04-14T03:12:42.524Z,9.93
2023-04-14T03:14:06.796Z,9.91
2023-04-14T03:15:29.835Z,9.92
2023-04-14T03:16:56.356Z,9.96
2023-04-14T03:18:24.192Z,9.92
2023-04-14T03:19:48.759Z,9.95
2023-04-14T03:21:11.688Z,9.92
2023-04-14T03:22:41.010Z,9.96
2023-04-14T03:24:07.464Z,9.97
2023-04-14T03:25:30.729Z,9.91
2023-04-14T03:26:58.184Z,9.95
2023-04-14T03:28:23.194Z,9.90
2023-04-14T03:29:49.167Z,9.94
2023-04-14T03:31:11.968Z,9.92
2023-04-14T03:32:43.762Z,9.96
2023-04-14T03:34:10.497Z,9.87
2023-04-14T03:35:38.031Z,9.95
2023-04-14T03:37:01.256Z,9.87
2023-04-14T03:38:29.153Z,9.92
2023-04-14T03:40:00.793Z,9.88
2023-04-14T03:41:27.666Z,9.95
2023-04-14T03:42:52.742Z,9.85
2023-04-14T03:44:19.731Z,9.86
2023-04-14T03:45:47.775Z,9.91
2023-04-14T03:47:12.927Z,9.87
2023-04-14T03:48:44.570Z,9.86
2023-04-14T03:50:12.429Z,9.92
2023-04-14T03:51:40.231Z,9.92
2023-04-14T03:53:02.029Z,9.92
2023-04-14T03:54:30.676Z,9.93
2023-04-14T03:55:54.365Z,9.93
2023-04-14T03:57:21.335Z,9.89
2023-04-14T04:00:48.047Z,9.87
2023-04-14T04:02:11.318Z,9.83
2023-04-14T04:03:37.079Z,9.88
2023-04-14T04:05:02.178Z,9.87
2023-04-14T04:06:27.172Z,9.86
2023-04-14T04:07:51.959Z,9.86
2023-04-14T04:09:16.072Z,9.90
2023-04-14T04:10:42.279Z,9.91
2023-04-14T04:12:07.457Z,9.91
2023-04-14T04:13:29.852Z,9.84
2023-04-14T04:14:55.005Z,9.85
2023-04-14T04:16:18.801Z,9.91
2023-04-14T04:17:47.215Z,9.90
2023-04-14T04:19:14.240Z,9.83
2023-04-14T04:20:42.214Z,9.82
2023-04-14T04:22:14.098Z,9.88
2023-04-14T04:24:23.447Z,9.87
2023-04-14T04:27:24.469Z,9.84
2023-04-14T04:29:35.724Z,9.68
2023-04-14T04:37:12.210Z,9.58
2023-04-14T04:38:39.518Z,9.58
2023-04-14T04:46:46.282Z,9.59
2023-04-14T04:51:35.926Z,9.48
2023-04-14T04:52:57.933Z,9.54
2023-04-14T04:54:20.632Z,9.48
2023-04-14T04:55:43.538Z,9.48
2023-04-14T04:57:04.813Z,9.55
2023-04-14T04:58:28.777Z,9.58
2023-04-14T04:59:55.393Z,9.57
2023-04-14T05:01:24.692Z,9.63
2023-04-14T05:06:04.334Z,9.60
2023-04-14T05:07:30.344Z,9.60
2023-04-14T05:08:58.713Z,9.63
2023-04-14T05:10:28.805Z,9.63
2023-04-14T05:12:09.736Z,9.68
2023-04-14T05:13:35.086Z,9.67
2023-04-14T05:20:34.324Z,9.72
2023-04-14T05:22:04.830Z,9.74
2023-04-14T05:23:31.337Z,9.72
2023-04-14T05:25:02.175Z,9.81
2023-04-14T05:26:51.213Z,9.74
2023-04-14T05:30:36.299Z,9.89
2023-04-14T05:32:02.254Z,9.86
2023-04-14T05:33:50.379Z,9.87
2023-04-14T05:35:12.839Z,9.90
2023-04-14T05:37:02.760Z,9.97
2023-04-14T05:38:29.446Z,10.03
2023-04-14T05:39:50.829Z,10.01
2023-04-14T05:41:13.350Z,10.08
2023-04-14T05:42:35.588Z,10.13
2023-04-14T05:43:57.748Z,10.17
2023-04-14T05:45:20.368Z,10.20
2023-04-14T05:46:42.604Z,10.20
2023-04-14T05:48:07.154Z,10.27
2023-04-14T05:49:32.202Z,10.30
2023-04-14T05:50:54.583Z,10.36
2023-04-14T05:52:17.120Z,10.33
2023-04-14T05:53:40.911Z,10.43
2023-04-14T05:55:18.573Z,10.37
2023-04-14T05:56:46.851Z,10.44
2023-04-14T05:58:12.481Z,10.43
2023-04-14T06:00:03.428Z,10.43
2023-04-14T06:01:38.255Z,10.55
2023-04-14T06:03:01.638Z,10.56
2023-04-14T06:04:24.493Z,10.59
2023-04-14T06:05:48.404Z,10.56
2023-04-14T06:07:10.702Z,10.59
2023-04-14T06:08:58.804Z,10.55
2023-04-14T06:10:24.960Z,10.54
2023-04-14T06:11:52.887Z,10.54
2023-04-14T06:13:20.250Z,10.56
2023-04-14T06:14:48.837Z,10.63
2023-04-14T06:16:41.482Z,10.63
2023-04-14T06:18:25.763Z,10.65
2023-04-14T06:19:49.364Z,10.66
2023-04-14T06:21:11.878Z,10.67
2023-04-14T06:22:34.324Z,10.69
2023-04-14T06:23:58.290Z,10.69
2023-04-14T06:25:20.709Z,10.70
2023-04-14T06:26:43.976Z,10.77
2023-04-14T06:28:09.900Z,10.81
2023-04-14T06:29:32.173Z,10.83
2023-04-14T06:30:54.826Z,10.87
2023-04-14T06:32:16.853Z,10.91
2023-04-14T06:33:39.315Z,10.97
2023-04-14T06:35:01.677Z,11.02
2023-04-14T06:36:25.087Z,11.09
2023-04-14T06:37:47.630Z,11.14
2023-04-14T06:39:11.298Z,11.22
2023-04-14T06:40:35.895Z,11.25
2023-04-14T06:41:57.274Z,11.30
2023-04-14T06:43:20.043Z,11.37
2023-04-14T06:44:42.679Z,11.43
2023-04-14T06:46:05.111Z,11.49
2023-04-14T06:47:29.881Z,11.54
2023-04-14T06:48:52.570Z,11.54
2023-04-14T06:50:18.784Z,11.59
2023-04-14T06:51:42.809Z,11.63
2023-04-14T06:53:06.461Z,11.67
2023-04-14T06:56:58.073Z,11.71
2023-04-14T06:58:21.897Z,11.68
2023-04-14T06:59:47.731Z,11.74
2023-04-14T07:01:10.244Z,11.72
2023-04-14T07:02:36.466Z,11.76
2023-04-14T07:03:59.637Z,11.75
2023-04-14T07:05:22.943Z,11.76
2023-04-14T07:06:46.526Z,11.77
2023-04-14T07:08:10.461Z,11.82
2023-04-14T07:09:35.273Z,11.79
2023-04-14T07:11:02.251Z,11.87
2023-04-14T07:12:24.783Z,11.88
2023-04-14T07:13:47.662Z,11.85
2023-04-14T07:15:11.536Z,11.88
2023-04-14T07:16:37.120Z,11.98
2023-04-14T07:18:01.301Z,11.99
2023-04-14T07:19:23.759Z,11.94
2023-04-14T07:20:46.891Z,11.99
2023-04-14T07:22:09.261Z,11.98
2023-04-14T07:23:35.850Z,12.03
2023-04-14T07:25:08.972Z,12.03
2023-04-14T07:26:31.287Z,12.02
2023-04-14T07:28:02.539Z,12.06
2023-04-14T07:29:27.357Z,12.09
2023-04-14T07:30:50.283Z,12.11
2023-04-14T07:32:13.586Z,12.11
2023-04-14T07:33:37.128Z,12.10
2023-04-14T07:35:01.643Z,12.11
2023-04-14T07:36:23.805Z,12.10
2023-04-14T07:37:46.013Z,12.11
2023-04-14T07:39:08.430Z,12.08
2023-04-14T07:40:34.947Z,12.02
2023-04-14T07:41:58.857Z,12.06
2023-04-14T07:43:21.401Z,12.02
2023-04-14T07:44:44.028Z,12.03
2023-04-14T07:46:07.960Z,12.02
2023-04-14T07:47:30.502Z,12.06
2023-04-14T07:48:55.591Z,12.07
2023-04-14T07:50:19.795Z,12.09
2023-04-14T07:51:42.525Z,12.10
2023-04-14T07:53:05.107Z,12.07
2023-04-14T07:54:30.483Z,12.12
2023-04-14T07:55:54.297Z,12.13
2023-04-14T07:57:16.509Z,12.12
2023-04-14T07:58:38.110Z,12.07
2023-04-14T08:00:00.592Z,12.06
2023-04-14T08:01:25.889Z,12.01
2023-04-14T08:02:47.976Z,12.05
2023-04-14T08:04:11.108Z,12.00
2023-04-14T08:05:33.573Z,11.96
2023-04-14T08:06:55.866Z,11.97
2023-04-14T08:08:18.465Z,11.95
2023-04-14T08:09:41.229Z,11.95
2023-04-14T08:11:05.038Z,11.90
2023-04-14T08:12:29.819Z,11.94
2023-04-14T08:13:53.165Z,11.95
2023-04-14T08:15:15.704Z,11.94
2023-04-14T08:16:39.989Z,11.99
2023-04-14T08:18:03.180Z,11.97
2023-04-14T08:19:34.112Z,12.05
2023-04-14T08:21:18.231Z,12.03
2023-04-14T08:22:47.014Z,12.08
2023-04-14T08:24:09.959Z,12.20
2023-04-14T08:26:13.624Z,12.26
2023-04-14T08:28:13.342Z,12.27
2023-04-14T08:30:24.166Z,12.25
2023-04-14T08:31:50.143Z,12.26
2023-04-14T08:33:15.270Z,12.32
2023-04-14T08:35:37.933Z,12.33
2023-04-14T08:37:15.780Z,12.36
2023-04-14T08:41:25.159Z,12.38
2023-04-14T08:43:04.116Z,12.51
2023-04-14T08:45:12.336Z,12.54
2023-04-14T08:47:02.665Z,12.58
2023-04-14T08:49:04.528Z,12.59
2023-04-14T08:53:46.184Z,12.62
2023-04-14T08:59:12.067Z,12.86
2023-04-14T09:01:18.828Z,12.79
2023-04-14T09:03:12.978Z,12.76
2023-04-14T09:04:53.574Z,12.76
2023-04-14T09:06:27.218Z,12.76
2023-04-14T09:08:02.719Z,12.78
2023-04-14T09:09:27.355Z,12.76
2023-04-14T09:10:56.104Z,12.83
2023-04-14T09:12:19.429Z,12.83
2023-04-14T09:14:01.896Z,12.80
2023-04-14T09:15:29.432Z,12.82
2023-04-14T09:16:56.904Z,12.89
2023-04-14T09:18:19.449Z,12.86
2023-04-14T09:20:36.397Z,12.94
2023-04-14T09:21:52.248Z,12.86
2023-04-14T09:23:17.557Z,12.97
2023-04-14T09:24:40.045Z,13.00
2023-04-14T09:26:02.554Z,13.06
2023-04-14T09:27:26.459Z,13.08
2023-04-14T09:28:52.756Z,13.09
2023-04-14T09:30:22.232Z,13.22
2023-04-14T09:31:45.728Z,13.39
2023-04-14T09:33:09.195Z,13.57
2023-04-14T09:34:37.769Z,13.71
2023-04-14T09:36:00.139Z,13.86
2023-04-14T09:37:24.805Z,13.99
2023-04-14T09:38:49.490Z,14.11
2023-04-14T09:40:12.905Z,14.25
2023-04-14T09:41:35.833Z,14.33
2023-04-14T09:42:58.878Z,14.45
2023-04-14T09:44:25.879Z,14.52
2023-04-14T09:45:48.018Z,14.59
2023-04-14T09:47:16.512Z,14.60
2023-04-14T09:48:55.788Z,14.58
2023-04-14T09:50:18.295Z,14.64
2023-04-14T09:51:40.615Z,14.74
2023-04-14T09:53:05.869Z,14.89
2023-04-14T09:54:28.704Z,15.00
2023-04-14T09:55:53.438Z,15.06
2023-04-14T09:57:29.586Z,15.13
2023-04-14T09:58:51.953Z,15.19
2023-04-14T10:00:24.746Z,15.22
2023-04-14T10:02:10.266Z,15.25
2023-04-14T10:03:39.559Z,15.31
2023-04-14T10:05:06.538Z,15.47
2023-04-14T10:06:49.590Z,15.52
2023-04-14T10:08:18.833Z,15.58
2023-04-14T10:09:43.995Z,15.62
2023-04-14T10:11:38.288Z,15.62
2023-04-14T10:13:34.859Z,15.56
2023-04-14T10:17:05.387Z,15.60
2023-04-14T10:19:35.418Z,15.71
2023-04-14T10:22:19.157Z,15.80
2023-04-14T10:23:51.696Z,15.88
2023-04-14T10:25:44.179Z,15.86
2023-04-14T10:27:31.398Z,15.87
2023-04-14T10:29:03.461Z,15.85
2023-04-14T10:30:25.872Z,15.80
2023-04-14T10:31:50.552Z,15.80
2023-04-14T10:36:37.121Z,15.75
2023-04-14T10:37:59.793Z,15.68
2023-04-14T10:39:43.379Z,15.71
2023-04-14T10:41:07.678Z,15.66
2023-04-14T10:42:57.610Z,15.69
2023-04-14T10:46:50.605Z,15.55
2023-04-14T10:48:20.647Z,15.55
2023-04-14T10:49:46.469Z,15.61
2023-04-14T10:51:11.118Z,15.68
2023-04-14T10:52:40.859Z,15.77
2023-04-14T10:54:06.029Z,15.90
2023-04-14T10:55:29.869Z,16.03
2023-04-14T10:57:14.327Z,16.10
2023-04-14T10:58:38.555Z,16.22
2023-04-14T11:00:22.485Z,16.35
2023-04-14T11:01:59.723Z,16.39
2023-04-14T11:03:28.677Z,16.50
2023-04-14T11:05:09.245Z,16.50
2023-04-14T11:06:51.600Z,16.52
2023-04-14T11:08:23.795Z,16.43
2023-04-14T11:09:47.173Z,16.43
2023-04-14T11:11:14.211Z,16.33
2023-04-14T11:12:49.023Z,16.28
2023-04-14T11:14:14.206Z,16.32
2023-04-14T11:15:51.629Z,16.37
2023-04-14T11:17:22.123Z,16.36
2023-04-14T11:18:48.935Z,16.48
2023-04-14T11:20:15.979Z,16.54
2023-04-14T11:21:56.597Z,16.58
2023-04-14T11:23:29.358Z,16.66
2023-04-14T11:24:51.687Z,16.70
2023-04-14T11:26:14.702Z,16.78
2023-04-14T11:27:36.743Z,16.83
2023-04-14T11:29:00.443Z,16.86
2023-04-14T11:30:23.263Z,16.88
2023-04-14T11:31:46.740Z,16.89
2023-04-14T11:33:08.564Z,16.88
2023-04-14T11:34:30.049Z,16.84
2023-04-14T11:35:52.270Z,16.83
2023-04-14T11:37:14.679Z,16.81
2023-04-14T11:38:40.682Z,16.71
2023-04-14T11:40:03.670Z,16.74
2023-04-14T11:41:27.229Z,16.79
2023-04-14T11:42:53.702Z,16.85
2023-04-14T11:44:18.500Z,16.90
2023-04-14T11:45:44.054Z,16.96
2023-04-14T11:47:06.282Z,17.03
2023-04-14T11:48:32.418Z,17.12
2023-04-14T11:49:56.142Z,17.20
2023-04-14T11:51:20.761Z,17.31
2023-04-14T11:52:50.704Z,17.41
2023-04-14T11:54:14.800Z,17.50
2023-04-14T11:55:36.987Z,17.56
2023-04-14T11:56:59.011Z,17.57
2023-04-14T11:58:23.887Z,17.56
2023-04-14T11:59:47.334Z,17.58
2023-04-14T12:01:10.792Z,17.60
2023-04-14T12:02:34.251Z,17.62
2023-04-14T12:04:21.661Z,17.59
2023-04-14T12:06:03.348Z,17.55
2023-04-14T12:07:39.853Z,17.56
2023-04-14T12:09:31.614Z,17.44
2023-04-14T12:11:31.860Z,17.46
2023-04-14T12:14:06.349Z,17.45
2023-04-14T12:18:46.477Z,17.75
2023-04-14T12:20:18.313Z,17.88
2023-04-14T12:21:54.389Z,18.01
2023-04-14T12:26:08.999Z,18.18
2023-04-14T12:28:31.323Z,18.22
2023-04-14T12:30:03.944Z,18.19
2023-04-14T12:34:18.419Z,17.86
2023-04-14T12:35:43.369Z,17.76
2023-04-14T12:37:12.285Z,17.62
2023-04-14T12:38:42.185Z,17.51
2023-04-14T12:40:14.047Z,17.42
2023-04-14T12:41:48.038Z,17.22
2023-04-14T12:43:36.791Z,17.16
2023-04-14T12:45:07.862Z,16.94
2023-04-14T12:47:20.566Z,16.76
2023-04-14T12:51:53.908Z,16.43
2023-04-14T12:54:24.266Z,16.27
2023-04-14T12:55:49.026Z,16.28
2023-04-14T12:57:36.689Z,16.23
2023-04-14T13:05:39.223Z,16.14
2023-04-14T13:07:46.229Z,16.15
2023-04-14T13:13:32.912Z,16.11
2023-04-14T13:15:00.682Z,16.14
2023-04-14T13:16:29.373Z,16.13
2023-04-14T13:20:39.945Z,16.14
2023-04-14T13:22:20.014Z,16.21
2023-04-14T13:24:24.663Z,16.33
2023-04-14T14:02:49.438Z,16.12
2023-04-14T14:04:26.994Z,16.18
2023-04-14T14:06:57.139Z,16.23
2023-04-14T14:08:22.563Z,16.32
2023-04-14T14:10:03.376Z,16.36
2023-04-14T14:11:29.535Z,16.44
2023-04-14T14:13:03.972Z,16.44
2023-04-14T14:14:31.435Z,16.45
2023-04-14T14:15:53.116Z,16.47
2023-04-14T14:17:22.743Z,16.46
2023-04-14T14:18:51.646Z,16.49
2023-04-14T14:20:14.183Z,16.48
2023-04-14T14:21:43.616Z,16.55
2023-04-14T14:23:06.587Z,16.54
2023-04-14T14:24:29.654Z,16.57
2023-04-14T14:25:53.798Z,16.61
2023-04-14T14:27:29.969Z,16.65
2023-04-14T14:28:55.100Z,16.61
2023-04-14T14:30:17.607Z,16.70
2023-04-14T14:31:40.066Z,16.73
2023-04-14T14:33:02.488Z,16.72
2023-04-14T14:34:26.111Z,16.69
2023-04-14T14:35:48.684Z,16.67
2023-04-14T14:37:15.553Z,16.66
2023-04-14T14:38:38.431Z,16.61
2023-04-14T14:40:01.281Z,16.60
2023-04-14T14:41:23.371Z,16.54
2023-04-14T14:42:45.541Z,16.51
2023-04-14T14:44:07.930Z,16.45
2023-04-14T14:45:31.886Z,16.43
2023-04-14T14:47:00.277Z,16.42
2023-04-14T14:48:26.888Z,16.37
2023-04-14T14:50:00.366Z,16.30
2023-04-14T14:51:24.301Z,16.19
2023-04-14T14:52:46.529Z,16.05
2023-04-14T14:54:10.303Z,15.95
2023-04-14T14:55:35.920Z,15.87
2023-04-14T14:57:01.613Z,15.73
2023-04-14T14:58:25.689Z,15.68
2023-04-14T14:59:54.315Z,15.58
2023-04-14T15:01:20.180Z,15.42
2023-04-14T15:02:43.763Z,15.37
2023-04-14T15:04:06.911Z,15.30
2023-04-14T15:06:03.164Z,15.20
2023-04-14T15:07:25.917Z,15.06
2023-04-14T15:08:49.302Z,15.00
2023-04-14T15:10:16.964Z,15.00
2023-04-14T15:12:17.646Z,14.91
2023-04-14T15:13:47.915Z,14.83
2023-04-14T15:15:11.659Z,14.80
2023-04-14T15:16:38.316Z,14.71
2023-04-14T15:18:00.875Z,14.71
2023-04-14T15:19:47.023Z,14.63
2023-04-14T15:22:29.978Z,14.60
2023-04-14T15:26:23.918Z,14.55
2023-04-14T15:28:13.693Z,14.56
2023-04-14T15:30:01.096Z,14.53
2023-04-14T15:31:44.123Z,14.51
2023-04-14T15:33:07.318Z,14.56
2023-04-14T15:35:04.212Z,14.61
2023-04-14T15:36:46.816Z,14.62
2023-04-14T15:38:14.530Z,14.68
2023-04-14T15:40:03.252Z,14.65
2023-04-14T15:41:29.322Z,14.55
2023-04-14T15:42:56.673Z,14.56
2023-04-14T15:44:20.422Z,14.52
2023-04-14T15:46:36.942Z,14.51
2023-04-14T15:47:38.688Z,14.54
2023-04-14T15:49:05.556Z,14.46
2023-04-14T15:50:29.810Z,14.47
2023-04-14T15:52:00.921Z,14.45
2023-04-14T15:53:29.158Z,14.47
2023-04-14T15:54:52.754Z,14.46
2023-04-14T15:56:16.023Z,14.45
2023-04-14T15:57:38.457Z,14.45
2023-04-14T15:59:02.804Z,14.41
2023-04-14T16:00:27.846Z,14.38
2023-04-14T16:02:09.876Z,14.40
2023-04-14T16:03:36.016Z,14.43
2023-04-14T16:05:20.022Z,14.37
2023-04-14T16:07:16.834Z,14.35
2023-04-14T16:12:11.091Z,14.33
2023-04-14T16:13:57.919Z,14.31
2023-04-14T16:16:10.531Z,14.29
2023-04-14T16:17:45.820Z,14.20
2023-04-14T16:19:10.603Z,14.17
2023-04-14T16:20:38.031Z,14.13
2023-04-14T16:22:02.920Z,14.11
2023-04-14T16:23:31.107Z,14.05
2023-04-14T16:25:28.970Z,13.93
2023-04-14T16:26:59.345Z,13.95
2023-04-14T16:28:32.402Z,13.91
2023-04-14T16:32:57.472Z,13.70
2023-04-14T16:37:31.265Z,13.62
2023-04-14T16:39:23.499Z,13.57
2023-04-14T16:53:24.340Z,13.09
2023-04-14T16:54:54.461Z,13.10
2023-04-14T16:56:17.978Z,13.10
2023-04-14T16:57:50.360Z,12.99
2023-04-14T16:59:31.852Z,13.03
2023-04-14T17:01:06.028Z,12.96
2023-04-14T17:02:31.193Z,13.02
2023-04-14T17:03:53.362Z,12.98
2023-04-14T17:05:23.062Z,12.99
2023-04-14T17:07:08.152Z,12.97
2023-04-14T17:08:30.634Z,12.97
2023-04-14T17:10:04.355Z,12.96
2023-04-14T17:11:30.076Z,12.91
2023-04-14T17:12:52.796Z,12.92
2023-04-14T17:14:22.972Z,12.89
2023-04-14T17:15:45.720Z,12.83
2023-04-14T17:17:16.843Z,12.86
2023-04-14T17:18:54.458Z,12.86
2023-04-14T17:20:27.933Z,12.78
2023-04-14T17:22:02.156Z,12.82
2023-04-14T17:23:38.216Z,12.80
2023-04-14T17:25:01.396Z,12.75
2023-04-14T17:26:25.060Z,12.79
2023-04-14T17:27:51.233Z,12.76
2023-04-14T17:29:16.301Z,12.73
2023-04-14T17:30:41.779Z,12.76
2023-04-14T17:32:19.821Z,12.72
2023-04-14T17:33:47.540Z,12.73
2023-04-14T17:35:11.902Z,12.71
2023-04-14T17:36:39.200Z,12.70
2023-04-14T17:38:15.426Z,12.68
2023-04-14T17:39:51.920Z,12.64
2023-04-14T17:41:30.924Z,12.66
2023-04-14T17:43:51.770Z,12.60
2023-04-14T17:45:23.152Z,12.61
2023-04-14T17:46:59.544Z,12.57
2023-04-14T17:48:26.180Z,12.58
2023-04-14T17:49:50.104Z,12.57
2023-04-14T17:54:07.805Z,12.45
2023-04-14T17:55:40.100Z,12.50
2023-04-14T17:57:03.910Z,12.45
2023-04-14T17:58:26.433Z,12.50
2023-04-14T17:59:49.116Z,12.48
2023-04-14T18:01:15.136Z,12.48
2023-04-14T18:02:39.455Z,12.49
2023-04-14T18:04:06.757Z,12.47
2023-04-14T18:05:38.242Z,12.44
2023-04-14T18:07:02.720Z,12.42
2023-04-14T18:08:25.218Z,12.39
2023-04-14T18:09:48.511Z,12.44
2023-04-14T18:11:44.524Z,12.45
2023-04-14T18:12:57.350Z,12.43
2023-04-14T18:14:19.809Z,12.42
2023-04-14T18:15:42.808Z,12.42
2023-04-14T18:17:05.370Z,12.37
2023-04-14T18:18:27.664Z,12.41
2023-04-14T18:19:51.613Z,12.42
2023-04-14T18:21:14.554Z,12.42
2023-04-14T18:22:36.696Z,12.42
2023-04-14T18:25:27.109Z,12.38
2023-04-14T18:26:52.045Z,12.33
2023-04-14T18:28:13.983Z,12.38
2023-04-14T18:29:37.420Z,12.39
2023-04-14T18:30:59.867Z,12.36
2023-04-14T18:32:25.416Z,12.37
2023-04-14T18:33:47.871Z,12.36
2023-04-14T18:35:13.107Z,12.35
2023-04-14T18:36:35.347Z,12.35
2023-04-14T18:37:56.828Z,12.34
2023-04-14T18:39:19.300Z,12.31
2023-04-14T18:40:41.720Z,12.33
2023-04-14T18:42:03.956Z,12.25
2023-04-14T18:43:26.504Z,12.32
2023-04-14T18:44:48.673Z,12.31
2023-04-14T18:46:11.004Z,12.29
2023-04-14T18:47:35.776Z,12.25
2023-04-14T18:48:58.215Z,12.25
2023-04-14T18:50:22.175Z,12.20
2023-04-14T18:51:46.880Z,12.17
2023-04-14T18:53:16.796Z,12.18
2023-04-14T18:54:39.425Z,12.11
2023-04-14T18:56:49.207Z,12.12
2023-04-14T19:01:42.947Z,11.97
2023-04-14T19:03:27.349Z,11.93
2023-04-14T19:05:00.939Z,11.95
2023-04-14T19:06:27.826Z,11.93
2023-04-14T19:08:09.950Z,11.94
2023-04-14T19:12:28.739Z,11.87
2023-04-14T19:13:55.374Z,11.80
2023-04-14T19:15:20.376Z,11.81
2023-04-14T19:17:35.779Z,11.75
2023-04-14T19:22:51.860Z,11.74
2023-04-14T19:25:03.094Z,11.66
2023-04-14T19:27:09.191Z,11.59
2023-04-14T19:28:35.998Z,11.69
2023-04-14T19:29:58.610Z,11.62
2023-04-14T19:31:28.602Z,11.60
2023-04-14T19:32:52.192Z,11.68
2023-04-14T19:34:48.970Z,11.66
2023-04-14T19:36:46.731Z,11.59
2023-04-14T19:43:44.590Z,11.57
2023-04-14T19:48:53.115Z,11.51
2023-04-14T19:50:57.117Z,11.57
2023-04-14T19:52:43.574Z,11.56
2023-04-14T19:54:16.102Z,11.55
2023-04-14T19:56:15.092Z,11.54
2023-04-14T19:58:36.865Z,11.49
2023-04-14T20:00:12.917Z,11.53
2023-04-14T20:01:51.904Z,11.55
2023-04-14T20:03:20.676Z,11.50
2023-04-14T20:04:51.993Z,11.50
2023-04-14T20:06:20.518Z,11.59
2023-04-14T20:07:45.447Z,11.52
2023-04-14T20:09:53.564Z,11.54
2023-04-14T20:11:36.943Z,11.52
2023-04-14T20:13:11.330Z,11.53
2023-04-14T20:15:10.201Z,11.58
2023-04-14T20:18:36.478Z,11.59
2023-04-14T20:20:35.182Z,11.62
2023-04-14T20:22:23.060Z,11.60
2023-04-14T20:24:08.258Z,11.60
2023-04-14T20:25:31.164Z,11.61
2023-04-14T20:26:56.707Z,11.61
2023-04-14T20:28:36.695Z,11.61
2023-04-14T20:30:56.036Z,11.54
2023-04-14T20:33:28.554Z,11.62
2023-04-14T20:35:52.672Z,11.52
2023-04-14T20:37:52.713Z,11.59
2023-04-14T21:06:51.133Z,11.48
2023-04-14T21:09:09.754Z,11.50
2023-04-14T21:29:12.786Z,11.49
2023-04-14T21:31:15.250Z,11.48
2023-04-14T21:36:27.926Z,11.39
2023-04-14T21:42:08.129Z,11.43
2023-04-14T21:44:35.792Z,11.39
2023-04-14T21:47:08.812Z,11.36
2023-04-14T21:49:13.380Z,11.40
2023-04-14T21:53:02.302Z,11.45
2023-04-14T21:54:26.752Z,11.42
2023-04-14T21:56:09.105Z,11.45
2023-04-14T21:57:45.675Z,11.38
2023-04-14T21:59:21.684Z,11.47
2023-04-14T22:01:07.658Z,11.44
2023-04-14T22:02:43.593Z,11.47
2023-04-14T22:04:07.656Z,11.42
2023-04-14T22:06:19.156Z,11.44
2023-04-14T22:08:26.698Z,11.38
2023-04-14T22:11:08.791Z,11.45
2023-04-14T22:12:33.198Z,11.44
2023-04-14T22:16:43.673Z,11.43
2023-04-14T22:18:24.478Z,11.36
2023-04-14T22:20:21.786Z,11.34
2023-04-14T22:21:44.481Z,11.43
2023-04-14T22:23:13.390Z,11.40
2023-04-14T22:24:45.083Z,11.43
2023-04-14T22:26:10.464Z,11.43
2023-04-14T22:27:42.971Z,11.45
2023-04-14T22:29:09.759Z,11.45
2023-04-14T22:30:32.505Z,11.45
2023-04-14T22:31:54.948Z,11.47
2023-04-14T22:33:17.564Z,11.43
2023-04-14T22:34:40.024Z,11.47
2023-04-14T22:36:12.800Z,11.39
2023-04-14T22:37:46.190Z,11.45
2023-04-14T22:39:14.334Z,11.45
2023-04-14T22:40:45.845Z,11.43
2023-04-14T22:42:15.100Z,11.46
2023-04-14T22:43:44.885Z,11.38
2023-04-14T22:45:08.651Z,11.38
2023-04-14T22:46:29.902Z,11.47
2023-04-14T22:47:53.955Z,11.46
2023-04-14T22:49:18.568Z,11.47
2023-04-14T22:51:15.451Z,11.45
2023-04-14T22:52:37.878Z,11.39
2023-04-14T22:54:00.889Z,11.45
2023-04-14T22:55:22.320Z,11.40
2023-04-14T22:56:44.872Z,11.45
2023-04-14T22:58:17.082Z,11.47
2023-04-14T22:59:39.981Z,11.42
2023-04-14T23:01:21.361Z,11.44
2023-04-14T23:03:07.328Z,11.45
2023-04-14T23:04:33.156Z,11.37
2023-04-14T23:06:45.487Z,11.37
2023-04-14T23:08:21.648Z,11.35
2023-04-14T23:09:50.087Z,11.39
2023-04-14T23:11:43.450Z,11.39
2023-04-14T23:13:05.963Z,11.41
2023-04-14T23:14:37.549Z,11.38
2023-04-14T23:15:59.849Z,11.39
2023-04-14T23:17:25.433Z,11.41
2023-04-14T23:18:57.783Z,11.39
2023-04-14T23:23:05.731Z,11.36
2023-04-14T23:24:43.881Z,11.33
2023-04-14T23:26:31.247Z,11.33
2023-04-14T23:28:59.655Z,11.37
2023-04-14T23:30:26.357Z,11.29
2023-04-14T23:38:18.297Z,11.32
2023-04-14T23:46:59.948Z,11.14